Time;durP1;ratioP1;P1;durP2;ratioP2;P2;SDS_P1;SDS_P2;PMS_P1;PMS_P2;Temp;Humidity;BMP_temperature;BMP_pressure;BME280_temperature;BME280_humidity;BME280_pressure;Samples;Min_cycle;Max_cycle;Signal;HPM_P1;HPM_P2
2023/10/09 00:01:44;;;;;;;11.40;5.15;;;;;;;;;;5072043;28;20029;-65
2023/10/09 00:04:11;;;;;;;15.88;5.57;;;;;;;;;;5071602;28;20040;-65
2023/10/09 00:06:37;;;;;;;17.10;4.95;;;;;;;;;;5056697;28;20377;-65
2023/10/09 00:09:50;;;;;;;17.70;4.97;;;;;;;;;;5094859;28;20508;-65
2023/10/09 00:12:00;;;;;;;10.70;4.75;;;;;;;;;;5084309;28;20696;-65
2023/10/09 00:14:30;;;;;;;17.73;5.40;;;;;;;;;;5080529;28;20024;-64
2023/10/09 00:17:03;;;;;;;16.52;5.40;;;;;;;;;;5078250;28;20052;-65
2023/10/09 00:19:32;;;;;;;12.13;5.78;;;;;;;;;;5090357;28;20020;-64
2023/10/09 00:22:04;;;;;;;16.77;5.97;;;;;;;;;;5095486;28;20028;-65
2023/10/09 00:24:32;;;;;;;15.80;6.15;;;;;;;;;;5095433;28;20039;-64
2023/10/09 00:27:18;;;;;;;14.63;5.45;;;;;;;;;;5074928;28;20055;-64
2023/10/09 00:29:45;;;;;;;18.70;7.18;;;;;;;;;;5075036;28;20024;-64
2023/10/09 00:32:19;;;;;;;15.45;6.13;;;;;;;;;;5056953;28;20534;-65
2023/10/09 00:34:48;;;;;;;13.25;6.20;;;;;;;;;;5075114;28;20078;-65
2023/10/09 00:37:16;;;;;;;16.83;8.55;;;;;;;;;;5079619;28;20062;-65
2023/10/09 00:39:48;;;;;;;18.05;6.55;;;;;;;;;;5076874;28;20385;-64
2023/10/09 00:42:25;;;;;;;11.90;6.57;;;;;;;;;;5077142;28;20024;-64
2023/10/09 00:44:51;;;;;;;14.82;5.93;;;;;;;;;;5094910;28;20142;-64
2023/10/09 00:47:21;;;;;;;16.63;6.13;;;;;;;;;;5096045;28;20024;-64
2023/10/09 00:50:08;;;;;;;12.30;5.70;;;;;;;;;;5095145;28;20031;-64
2023/10/09 00:52:50;;;;;;;13.10;7.35;;;;;;;;;;5088880;28;20024;-64
2023/10/09 00:58:23;;;;;;;12.93;5.05;;;;;;;;;;5051566;28;20024;-64
2023/10/09 01:00:52;;;;;;;13.55;5.93;;;;;;;;;;5074737;28;20029;-64
2023/10/09 01:03:22;;;;;;;17.55;5.95;;;;;;;;;;5074373;28;20085;-64
2023/10/09 01:05:56;;;;;;;12.55;5.28;;;;;;;;;;5074916;28;20044;-64
2023/10/09 01:09:09;;;;;;;;;;;;;;;;;;5075006;28;20028;-64
2023/10/09 01:11:29;;;;;;;14.85;6.18;;;;;;;;;;5063534;28;19952;-64
2023/10/09 01:14:11;;;;;;;15.10;4.95;;;;;;;;;;5056353;28;20389;-64
2023/10/09 01:16:38;;;;;;;15.35;6.30;;;;;;;;;;5074081;28;20076;-64
2023/10/09 01:19:12;;;;;;;12.80;5.03;;;;;;;;;;5083981;28;20020;-64
2023/10/09 01:21:39;;;;;;;;;;;;;;;;;;5073649;28;20164;-64
2023/10/09 01:24:09;;;;;;;13.68;5.95;;;;;;;;;;5072867;28;19912;-64
2023/10/09 01:26:46;;;;;;;18.38;5.13;;;;;;;;;;5072940;28;20518;-64
2023/10/09 01:29:16;;;;;;;13.80;5.50;;;;;;;;;;5073422;28;20055;-64
2023/10/09 01:31:54;;;;;;;17.17;5.50;;;;;;;;;;5073225;28;20028;-64
2023/10/09 01:34:38;;;;;;;12.93;4.68;;;;;;;;;;5073298;28;20031;-65
2023/10/09 01:37:22;;;;;;;11.48;5.05;;;;;;;;;;5073208;28;20024;-64
2023/10/09 01:39:51;;;;;;;14.35;4.80;;;;;;;;;;5073389;28;20024;-64
2023/10/09 01:42:34;;;;;;;12.18;5.90;;;;;;;;;;5072871;28;20020;-64
2023/10/09 01:47:38;;;;;;;14.38;4.50;;;;;;;;;;5073052;28;20024;-64
2023/10/09 01:50:06;;;;;;;13.65;5.00;;;;;;;;;;5072904;28;20032;-64
2023/10/09 01:52:37;;;;;;;16.58;5.55;;;;;;;;;;5054904;28;20021;-64
2023/10/09 01:55:27;;;;;;;14.07;4.65;;;;;;;;;;5072651;28;20242;-64
2023/10/09 01:57:49;;;;;;;11.95;4.22;;;;;;;;;;5072738;28;20029;-64
2023/10/09 02:00:22;;;;;;;12.80;4.90;;;;;;;;;;5072596;28;20024;-64
2023/10/09 02:02:50;;;;;;;8.57;5.00;;;;;;;;;;5054408;28;20028;-64
2023/10/09 02:07:52;;;;;;;14.45;5.22;;;;;;;;;;5072612;28;20462;-64
2023/10/09 02:12:57;;;;;;;13.68;5.00;;;;;;;;;;5072373;28;20107;-64
2023/10/09 02:15:41;;;;;;;15.23;4.43;;;;;;;;;;5089734;28;20085;-64
2023/10/09 02:21:00;;;;;;;12.30;4.68;;;;;;;;;;5092083;28;20032;-64
2023/10/09 02:23:50;;;;;;;12.73;4.90;;;;;;;;;;5092559;28;20043;-64
2023/10/09 02:26:25;;;;;;;11.88;4.28;;;;;;;;;;5092608;28;20127;-64
2023/10/09 02:29:35;;;;;;;13.68;4.93;;;;;;;;;;5092514;28;20051;-64
2023/10/09 02:31:40;;;;;;;17.88;5.40;;;;;;;;;;5084526;28;20028;-64
2023/10/09 02:34:25;;;;;;;11.32;5.40;;;;;;;;;;5093100;28;20028;-64
2023/10/09 02:36:57;;;;;;;13.95;5.15;;;;;;;;;;5082570;28;20382;-64
2023/10/09 02:39:26;;;;;;;16.15;5.05;;;;;;;;;;5075536;28;20146;-64
2023/10/09 02:42:01;;;;;;;14.52;5.38;;;;;;;;;;5073799;28;20033;-64
2023/10/09 02:44:32;;;;;;;11.70;3.95;;;;;;;;;;5072413;28;20029;-64
2023/10/09 02:46:58;;;;;;;15.50;4.85;;;;;;;;;;5073686;28;20037;-64
2023/10/09 02:49:26;;;;;;;10.88;4.70;;;;;;;;;;5072615;28;20035;-64
2023/10/09 02:51:55;;;;;;;20.70;5.65;;;;;;;;;;5083923;28;20056;-64
2023/10/09 02:56:56;;;;;;;19.85;4.80;;;36.60;99.90;;;;;;5090657;28;20490;-64
2023/10/09 02:59:22;;;;;;;12.45;4.68;;;35.80;99.90;;;;;;5078270;28;20032;-64
2023/10/09 03:01:49;;;;;;;9.75;3.92;;;35.70;99.90;;;;;;5081242;28;20028;-64
2023/10/09 03:04:15;;;;;;;15.65;4.25;;;35.70;99.90;;;;;;5086782;28;20036;-64
2023/10/09 03:06:51;;;;;;;10.85;4.75;;;35.70;99.90;;;;;;5083367;28;20440;-64
2023/10/09 03:09:26;;;;;;;15.85;4.93;;;35.70;99.90;;;;;;5081402;28;20029;-64
2023/10/09 03:11:53;;;;;;;15.00;5.13;;;35.70;99.90;;;;;;5073173;28;20099;-63
2023/10/09 03:14:20;;;;;;;9.48;4.93;;;35.70;99.90;;;;;;5087775;28;20028;-64
2023/10/09 03:16:48;;;;;;;18.85;5.05;;;35.70;99.90;;;;;;5072253;28;20024;-64
2023/10/09 03:19:14;;;;;;;10.38;3.60;;;35.70;99.90;;;;;;5084746;28;20470;-64
2023/10/09 03:21:40;;;;;;;13.43;4.80;;;35.70;99.90;;;;;;5092573;28;20027;-64
2023/10/09 03:24:08;;;;;;;10.85;3.80;;;;;;;;;;5088145;28;20090;-64
2023/10/09 03:26:34;;;;;;;12.90;4.07;;;;;;;;;;5073873;28;20048;-64
2023/10/09 03:29:06;;;;;;;15.07;5.10;;;;;;;;;;5078762;28;20032;-64
2023/10/09 03:31:36;;;;;;;15.43;3.60;;;;;;;;;;5073038;28;20040;-64
2023/10/09 03:34:02;;;;;;;13.88;4.25;;;;;;;;;;5085078;28;20024;-64
2023/10/09 03:36:30;;;;;;;12.38;4.63;;;;;;;;;;5079255;28;20029;-64
2023/10/09 03:38:57;;;;;;;15.68;5.05;;;;;;;;;;5075250;28;20028;-64
2023/10/09 03:41:26;;;;;;;10.57;3.78;;;;;;;;;;5077191;28;20041;-64
2023/10/09 03:43:53;;;;;;;17.42;4.70;;;;;;;;;;5058943;28;20611;-64
2023/10/09 03:46:32;;;;;;;7.68;4.43;;;;;;;;;;5076261;28;20550;-64
2023/10/09 03:49:00;;;;;;;13.57;4.60;;;;;;;;;;5080189;28;20021;-64
2023/10/09 03:51:30;;;;;;;12.18;4.70;;;;;;;;;;5094127;28;20032;-64
2023/10/09 03:53:56;;;;;;;10.60;4.15;;;;;;;;;;5073397;28;20025;-64
2023/10/09 03:56:22;;;;;;;12.48;4.40;;;;;;;;;;5075763;28;20025;-64
2023/10/09 03:58:49;;;;;;;8.48;4.38;;;;;;;;;;5075838;28;20024;-64
2023/10/09 04:01:58;;;;;;;11.40;4.78;;;;;;;;;;5076496;28;20374;-64
2023/10/09 04:04:06;;;;;;;11.00;4.85;;;;;;;;;;5067226;28;20070;-64
2023/10/09 04:06:33;;;;;;;10.32;4.40;;;;;;;;;;5084091;28;20038;-64
2023/10/09 04:11:46;;;;;;;16.85;6.45;;;;;;;;;;5095947;28;20358;-64
2023/10/09 04:14:19;;;;;;;14.57;5.07;;;;;;;;;;5095774;28;20030;-64
2023/10/09 04:16:51;;;;;;;12.13;4.60;;;;;;;;;;5096071;28;20103;-64
2023/10/09 04:19:22;;;;;;;10.15;4.57;;;;;;;;;;5113661;28;20175;-63
2023/10/09 04:21:48;;;;;;;12.35;4.43;;;;;;;;;;5116242;28;20024;-63
2023/10/09 04:26:44;;;;;;;13.43;5.47;;;;;;;;;;5115960;28;20054;-63
2023/10/09 04:29:38;;;;;;;11.18;4.50;;;;;;;;;;5097585;28;20393;-63
2023/10/09 04:32:15;;;;;;;11.13;4.03;;;;;;;;;;5115997;28;20081;-63
2023/10/09 04:34:48;;;;;;;11.07;4.22;;;;;;;;;;5093729;28;20528;-63
2023/10/09 04:39:47;;;;;;;14.13;4.50;;;;;;;;;;5077515;28;20116;-63
2023/10/09 04:47:37;;;;;;;16.98;4.78;;;35.40;99.90;;;;;;5074987;28;20029;-63
2023/10/09 04:52:55;;;;;;;16.60;5.70;;;35.40;99.90;;;;;;5074335;28;20064;-63
2023/10/09 04:55:24;;;;;;;15.93;6.90;;;35.40;99.90;;;;;;5073291;28;20119;-63
2023/10/09 04:58:13;;;;;;;13.48;6.78;;;35.40;99.90;;;;;;5074608;28;20074;-63
2023/10/09 05:03:12;;;;;;;14.70;6.38;;;35.40;99.90;;;;;;5087691;28;20032;-63
2023/10/09 05:13:42;;;;;;;15.80;5.80;;;35.20;99.90;;;;;;5094827;28;20040;-63
2023/10/09 05:16:26;;;;;;;16.52;5.63;;;35.20;99.90;;;;;;5094698;28;20048;-63
2023/10/09 05:18:57;;;;;;;10.60;4.90;;;35.20;99.90;;;;;;5094364;28;20035;-63
2023/10/09 05:21:37;;;;;;;17.02;5.47;;;35.20;99.90;;;;;;5094448;28;20099;-63
2023/10/09 05:29:19;;;;;;;20.92;5.63;;;35.20;99.90;;;;;;5074383;28;20029;-63
2023/10/09 05:34:34;;;;;;;12.43;4.88;;;35.20;99.90;;;;;;5073404;28;20409;-63
2023/10/09 05:37:24;;;;;;;16.20;5.63;;;35.20;99.90;;;;;;5059073;28;20370;-63
2023/10/09 06:27:43;;;;;;;15.32;5.03;;;35.20;99.90;;;;;;5092904;28;20400;-67
2023/10/09 06:30:15;;;;;;;13.27;4.95;;;35.20;99.90;;;;;;5092291;28;20040;-67
2023/10/09 06:35:30;;;;;;;16.80;6.05;;;35.20;99.90;;;;;;5065539;28;20111;-67
2023/10/09 06:43:17;;;;;;;15.18;4.95;;;35.20;99.90;;;;;;5072561;28;20105;-63
2023/10/09 06:45:43;;;;;;;11.00;5.75;;;35.20;99.90;;;;;;5072776;28;20107;-63
2023/10/09 06:48:40;;;;;;;13.75;5.90;;;35.20;99.90;;;;;;5072147;28;20043;-62
2023/10/09 06:50:58;;;;;;;16.55;5.03;;;35.20;99.90;;;;;;5072299;28;20029;-63
2023/10/09 06:53:58;;;;;;;13.55;5.32;;;35.20;99.90;;;;;;5079353;28;20024;-63
2023/10/09 06:56:23;;;;;;;14.90;4.55;;;35.20;99.90;;;;;;5087279;28;20100;-63
2023/10/09 06:58:49;;;;;;;18.83;6.55;;;35.30;99.90;;;;;;5072759;28;20036;-63
2023/10/09 07:04:18;;;;;;;14.13;5.43;;;35.30;99.90;;;;;;5072189;28;20047;-63
2023/10/09 07:16:58;;;;;;;13.90;5.45;;;35.30;99.90;;;;;;5061345;28;20025;-63
2023/10/09 07:22:16;;;;;;;18.60;5.80;;;35.40;99.90;;;;;;5071927;28;20405;-63
2023/10/09 07:24:43;;;;;;;17.02;6.38;;;35.40;99.90;;;;;;5072306;28;20048;-63
2023/10/09 07:27:15;;;;;;;22.75;7.25;;;35.50;99.90;;;;;;5071841;28;20102;-63
2023/10/09 07:29:47;;;;;;;17.33;5.78;;;35.50;99.90;;;;;;5072536;28;20112;-63
2023/10/09 07:32:22;;;;;;;14.85;5.95;;;35.50;99.90;;;;;;5076017;28;20065;-62
2023/10/09 07:34:58;;;;;;;20.10;6.35;;;35.40;99.90;;;;;;5082610;28;20131;-63
2023/10/09 07:37:37;;;;;;;17.42;6.30;;;35.40;99.90;;;;;;5072416;28;20079;-63
2023/10/09 07:40:07;;;;;;;16.80;5.93;;;35.40;99.90;;;;;;5072522;28;20182;-63
2023/10/09 07:42:45;;;;;;;17.90;5.95;;;35.50;99.90;;;;;;5075310;28;20123;-63
2023/10/09 07:45:54;;;;;;;17.38;6.13;;;35.50;99.90;;;;;;5071162;28;20574;-60
2023/10/09 07:50:37;;;;;;;16.13;6.00;;;35.50;99.90;;;;;;5092059;28;20224;-56
2023/10/09 07:53:25;;;;;;;16.23;5.50;;;35.60;99.90;;;;;;5091843;28;20123;-62
2023/10/09 07:56:06;;;;;;;18.80;6.03;;;35.60;99.90;;;;;;5091977;28;20020;-63
2023/10/09 07:58:45;;;;;;;17.02;6.22;;;35.60;99.90;;;;;;5092566;28;20017;-64
2023/10/09 08:01:34;;;;;;;15.80;5.28;;;35.60;99.90;;;;;;5073943;28;20110;-64
2023/10/09 08:04:12;;;;;;;18.45;6.13;;;35.70;99.90;;;;;;5073878;28;20132;-65
2023/10/09 08:06:38;;;;;;;17.63;5.75;;;35.70;99.90;;;;;;5089534;28;20485;-61
2023/10/09 08:17:15;;;;;;;20.33;5.50;;;35.80;99.90;;;;;;5077173;28;20081;-62
2023/10/09 08:19:54;;;;;;;17.42;5.97;;;35.80;99.90;;;;;;5092074;28;20065;-69
2023/10/09 08:24:57;;;;;;;19.60;6.50;;;35.90;99.90;;;;;;5088448;28;20461;-68
2023/10/09 08:33:02;;;;;;;17.35;5.60;;;35.90;99.90;;;;;;5083474;28;20382;-58
2023/10/09 08:35:33;;;;;;;12.82;5.85;;;35.90;99.90;;;;;;5064135;28;20357;-54
2023/10/09 08:38:07;;;;;;;22.20;7.05;;;35.90;99.90;;;;;;5095390;28;20400;-55
2023/10/09 08:40:39;;;;;;;16.60;5.50;;;36.00;99.90;;;;;;5082236;28;20036;-60
2023/10/09 08:46:28;;;;;;;15.60;5.88;;;36.10;99.90;;;;;;5084098;28;20477;-61
2023/10/09 08:49:04;;;;;;;15.32;5.55;;;36.20;99.90;;;;;;5090258;28;20469;-60
2023/10/09 08:51:30;;;;;;;18.02;6.57;;;36.20;99.90;;;;;;5080421;28;20028;-61
2023/10/09 08:53:57;;;;;;;15.30;6.47;;;;;;;;;;5088361;28;20027;-59
2023/10/09 08:56:24;;;;;;;15.43;5.95;;;;;;;;;;5087726;28;20055;-55
2023/10/09 08:58:53;;;;;;;12.65;5.32;;;;;;;;;;5095381;28;20457;-52
2023/10/09 09:01:21;;;;;;;17.38;5.43;;;;;;;;;;5070887;28;20033;-54
2023/10/09 09:03:47;;;;;;;18.50;5.78;;;;;;;;;;5085809;28;20032;-55
2023/10/09 09:06:14;;;;;;;23.10;6.68;;;;;;;;;;5075834;28;20028;-60
2023/10/09 09:08:40;;;;;;;15.65;5.40;;;;;;;;;;5081309;28;20055;-62
2023/10/09 09:11:12;;;;;;;22.63;6.85;;;;;;;;;;5092452;28;20024;-61
2023/10/09 09:13:41;;;;;;;15.35;5.47;;;;;;;;;;5086879;28;20049;-60
2023/10/09 09:16:13;;;;;;;17.63;5.75;;;;;;;;;;5083934;28;20020;-59
2023/10/09 09:18:51;;;;;;;19.17;6.15;;;;;;;;;;5082580;28;20027;-61
2023/10/09 09:21:24;;;;;;;13.68;5.70;;;;;;;;;;5061180;28;20020;-61
2023/10/09 09:23:57;;;;;;;18.05;6.28;;;;;;;;;;5079988;28;20081;-61
2023/10/09 09:27:18;;;;;;;18.20;6.03;;;;;;;;;;5087316;28;20067;-63
2023/10/09 09:29:23;;;;;;;30.02;6.60;;;;;;;;;;5069584;28;20044;-54
2023/10/09 09:34:49;;;;;;;22.35;6.32;;;;;;;;;;5085646;28;20039;-59
2023/10/09 09:37:28;;;;;;;23.83;5.97;;;;;;;;;;5079205;28;20363;-59
2023/10/09 09:40:01;;;;;;;20.52;5.95;;;;;;;;;;5080899;28;20032;-60
2023/10/09 09:42:32;;;;;;;14.00;5.13;;;;;;;;;;5078467;28;20025;-61
2023/10/09 09:44:59;;;;;;;20.60;5.65;;;;;;;;;;5081688;28;20028;-66
2023/10/09 09:47:26;;;;;;;20.90;5.40;;;;;;;;;;5085560;28;20024;-60
2023/10/09 09:49:59;;;;;;;21.77;5.78;;;;;;;;;;5085586;28;20452;-59
2023/10/09 09:52:25;;;;;;;25.15;5.50;;;;;;;;;;5088726;28;20396;-56
2023/10/09 09:54:51;;;;;;;22.40;6.00;;;;;;;;;;5064756;28;20052;-60
2023/10/09 09:57:56;;;;;;;20.58;5.90;;;;;;;;;;5080365;28;20051;-60
2023/10/09 10:00:30;;;;;;;15.55;4.72;;;;;;;;;;5086027;28;20066;-59
2023/10/09 10:03:11;;;;;;;13.40;5.55;;;;;;;;;;5073316;28;20070;-63
2023/10/09 10:05:38;;;;;;;18.13;5.43;;;;;;;;;;5059884;28;20464;-62
2023/10/09 10:08:05;;;;;;;25.23;6.38;;;;;;;;;;5073972;28;20028;-62
2023/10/09 10:10:38;;;;;;;23.27;6.60;;;;;;;;;;5056444;28;20548;-61
2023/10/09 10:13:05;;;;;;;23.00;6.20;;;;;;;;;;5074033;28;20028;-59
2023/10/09 10:15:50;;;;;;;22.63;5.75;;;;;;;;;;5077083;28;20024;-59
2023/10/09 10:18:19;;;;;;;20.20;6.15;;;;;;;;;;5076058;28;20495;-59
2023/10/09 10:21:14;;;;;;;18.23;5.70;;;;;;;;;;5070831;28;20386;-59
2023/10/09 10:23:41;;;;;;;14.13;5.60;;;;;;;;;;5080224;28;20033;-56
2023/10/09 10:26:27;;;;;;;16.10;6.07;;;;;;;;;;5087952;28;20096;-58
2023/10/09 10:29:22;;;;;;;20.08;5.70;;;;;;;;;;5078365;28;20048;-63
2023/10/09 10:31:54;;;;;;;15.80;5.20;;;;;;;;;;5092925;28;20032;-61
2023/10/09 10:34:23;;;;;;;19.70;6.18;;;;;;;;;;5079821;28;20511;-59
2023/10/09 10:36:52;;;;;;;19.50;6.15;;;;;;;;;;5080829;28;20488;-61
2023/10/09 10:41:54;;;;;;;16.55;5.03;;;;;;;;;;5089052;28;20036;-62
2023/10/09 10:44:33;;;;;;;19.70;5.53;;;;;;;;;;5088466;28;20178;-60
2023/10/09 10:46:59;;;;;;;19.92;5.43;;;;;;;;;;5073932;28;20040;-52
2023/10/09 10:49:36;;;;;;;13.43;4.45;;;;;;;;;;5065438;28;20062;-59
2023/10/09 10:52:15;;;;;;;18.85;5.13;;;;;;;;;;5085111;28;20073;-73
2023/10/09 10:57:28;;;;;;;18.10;4.82;;;;;;;;;;5082662;28;20039;-60
2023/10/09 11:01:00;;;;;;;13.85;4.13;;;;;;;;;;5089866;28;20032;-60
2023/10/09 11:02:43;;;;;;;16.67;5.13;;;;;;;;;;5078391;28;20044;-61
2023/10/09 11:05:23;;;;;;;15.93;3.78;;;;;;;;;;5076152;28;20165;-61
2023/10/09 11:07:52;;;;;;;12.35;4.68;;;;;;;;;;5075816;28;20020;-61
2023/10/09 11:10:28;;;;;;;15.52;4.65;;;;;;;;;;5063617;28;20024;-61
2023/10/09 11:15:46;;;;;;;17.67;4.45;;;;;;;;;;5079866;28;20031;-61
2023/10/09 11:18:35;;;;;;;19.08;4.60;;;;;;;;;;5083221;28;20016;-62
2023/10/09 11:28:49;;;;;;;12.38;3.92;;;;;;;;;;5086438;28;20093;-59
2023/10/09 11:31:16;;;;;;;10.93;3.83;;;;;;;;;;5084800;28;20029;-61
2023/10/09 11:33:45;;;;;;;16.25;4.47;;;;;;;;;;5075703;28;20076;-60
2023/10/09 11:36:11;;;;;;;12.15;3.80;;;;;;;;;;5083325;28;20111;-61
2023/10/09 11:38:38;;;;;;;13.15;3.97;;;;;;;;;;5054908;28;20067;-60
2023/10/09 11:41:22;;;;;;;17.13;4.25;;;;;;;;;;5082194;28;20048;-60
2023/10/09 11:43:57;;;;;;;14.63;4.65;;;;;;;;;;5056028;28;20047;-59
2023/10/09 11:49:25;;;;;;;15.50;3.85;;;;;;;;;;5075710;28;20059;-69
2023/10/09 11:54:38;;;;;;;17.88;4.28;;;;;;;;;;5068707;28;20041;-64
2023/10/09 11:57:04;;;;;;;16.50;4.35;;;;;;;;;;5077128;28;20440;-63
2023/10/09 11:59:39;;;;;;;15.07;4.70;;;;;;;;;;5072420;28;20055;-65
2023/10/09 12:02:11;;;;;;;16.05;4.68;;;;;;;;;;5080113;28;20070;-63
2023/10/09 12:04:37;;;;;;;18.80;4.30;;;;;;;;;;5078445;28;20039;-51
2023/10/09 12:07:10;;;;;;;16.58;4.40;;;;;;;;;;5081682;28;20025;-61
2023/10/09 12:09:39;;;;;;;14.30;4.03;;;;;;;;;;5078069;28;20029;-60
2023/10/09 12:12:06;;;;;;;12.38;4.30;;;;;;;;;;5080084;28;20036;-60
2023/10/09 12:14:37;;;;;;;14.85;4.03;;;;;;;;;;5078030;28;20461;-60
2023/10/09 12:17:07;;;;;;;16.27;3.97;;;;;;;;;;5092799;28;20180;-60
2023/10/09 12:19:33;;;;;;;19.10;5.22;;;;;;;;;;5075530;28;20107;-65
2023/10/09 12:22:03;;;;;;;14.23;4.05;;;;;;;;;;5090761;28;20492;-61
2023/10/09 12:24:30;;;;;;;17.25;4.07;;;;;;;;;;5086704;28;20039;-63
2023/10/09 12:26:57;;;;;;;14.73;3.95;;;;;;;;;;5090683;28;20040;-64
2023/10/09 12:29:24;;;;;;;14.35;5.20;;;;;;;;;;5085515;28;20082;-61
2023/10/09 12:31:58;;;;;;;19.98;4.55;;;;;;;;;;5081758;28;20032;-63
2023/10/09 12:34:26;;;;;;;;;;;;;;;;;;5089106;28;20030;-62
2023/10/09 12:36:52;;;;;;;18.67;4.63;;;;;;;;;;5095921;28;19904;-63
2023/10/09 12:39:18;;;;;;;13.85;4.45;;;;;;;;;;5072798;28;20440;-63
2023/10/09 12:41:44;;;;;;;17.45;4.25;;;;;;;;;;5092822;28;20027;-62
2023/10/09 12:44:14;;;;;;;16.45;4.47;;;;;;;;;;5082340;28;20028;-65
2023/10/09 12:46:41;;;;;;;15.98;4.20;;;;;;;;;;5063343;28;20024;-60
2023/10/09 12:49:07;;;;;;;16.15;4.10;;;;;;;;;;5088456;28;20107;-62
2023/10/09 12:51:33;;;;;;;14.13;4.00;;;;;;;;;;5090614;28;20021;-60
2023/10/09 12:54:01;;;;;;;14.90;3.90;;;;;;;;;;5093559;28;20081;-59
2023/10/09 12:56:32;;;;;;;16.73;5.03;;;;;;;;;;5090033;28;20027;-60
2023/10/09 12:59:01;;;;;;;18.95;4.60;;;;;;;;;;5079201;28;20035;-68
2023/10/09 13:01:42;;;;;;;13.82;3.30;;;;;;;;;;5067216;28;20105;-62
2023/10/09 13:04:11;;;;;;;13.30;3.78;;;;;;;;;;5086757;28;20481;-61
2023/10/09 13:06:43;;;;;;;16.50;3.95;;;;;;;;;;5085781;28;20039;-60
2023/10/09 13:09:09;;;;;;;11.55;4.45;;;;;;;;;;5085168;28;20105;-63
2023/10/09 13:11:37;;;;;;;15.70;3.67;;;;;;;;;;5094312;28;20072;-66
2023/10/09 13:14:21;;;;;;;16.23;4.30;;;;;;;;;;5079953;28;20107;-65
2023/10/09 13:16:50;;;;;;;13.10;4.68;;;;;;;;;;5072252;28;20422;-65
2023/10/09 13:19:17;;;;;;;13.27;3.60;;;;;;;;;;5094369;28;20027;-65
2023/10/09 13:21:43;;;;;;;17.25;4.07;;;;;;;;;;5094059;28;20110;-65
2023/10/09 13:24:13;;;;;;;11.88;3.42;;;;;;;;;;5080379;28;20024;-65
2023/10/09 13:26:40;;;;;;;15.10;4.20;;;;;;;;;;5094181;28;20048;-66
2023/10/09 13:29:09;;;;;;;12.25;4.15;;;;;;;;;;5076022;28;20034;-65
2023/10/09 13:31:37;;;;;;;16.75;3.70;;;;;;;;;;5094274;28;20048;-65
2023/10/09 13:34:09;;;;;;;15.18;4.72;;;;;;;;;;5075889;28;20051;-66
2023/10/09 13:36:36;;;;;;;14.93;3.72;;;;;;;;;;5094617;28;20028;-63
2023/10/09 13:39:24;;;;;;;13.80;4.60;;;;;;;;;;5090718;28;20453;-63
2023/10/09 13:42:01;;;;;;;14.23;3.95;;;;;;;;;;5086763;28;20046;-63
2023/10/09 13:44:31;;;;;;;15.30;4.38;;;;;;;;;;5088926;28;20035;-63
2023/10/09 13:46:57;;;;;;;10.98;3.50;;;;;;;;;;5093559;28;20494;-63
2023/10/09 13:49:29;;;;;;;14.10;4.10;;;;;;;;;;5076013;28;20121;-63
2023/10/09 13:51:56;;;;;;;17.88;3.90;;;;;;;;;;5094291;28;20016;-63
2023/10/09 13:56:58;;;;;;;13.48;3.88;;;;;;;;;;5080147;28;20357;-62
2023/10/09 13:59:27;;;;;;;13.73;4.10;;;;;;;;;;5089228;28;20436;-62
2023/10/09 14:01:54;;;;;;;15.40;4.32;;;;;;;;;;5076378;28;20024;-62
2023/10/09 14:04:20;;;;;;;15.98;4.45;;;;;;;;;;5069533;28;20453;-65
2023/10/09 14:06:47;;;;;;;16.00;4.18;;;;;;;;;;5079926;28;20021;-68
2023/10/09 14:09:27;;;;;;;13.23;3.90;;;;;;;;;;5084910;28;20020;-62
2023/10/09 14:12:06;;;;;;;11.68;4.25;;;;;;;;;;5085699;28;20385;-60
2023/10/09 14:14:33;;;;;;;13.75;3.83;;;;;;;;;;5082527;28;20031;-63
2023/10/09 14:16:59;;;;;;;16.92;4.53;;;;;;;;;;5090518;28;20020;-64
2023/10/09 14:19:25;;;;;;;15.48;4.82;;;;;;;;;;5088325;28;20124;-66
2023/10/09 14:21:51;;;;;;;14.95;3.85;;;;;;;;;;5071458;28;20016;-66
2023/10/09 14:24:18;;;;;;;14.75;4.43;;;;;;;;;;5077134;28;20032;-62
2023/10/09 14:26:46;;;;;;;13.90;4.72;;;;;;;;;;5062591;28;20044;-62
2023/10/09 14:29:16;;;;;;;13.70;4.90;;;;;;;;;;5070123;28;20017;-62
2023/10/09 14:31:59;;;;;;;17.60;5.43;;;;;;;;;;5058605;28;20036;-72
2023/10/09 14:34:29;;;;;;;13.32;5.20;;;;;;;;;;5070961;28;20111;-73
2023/10/09 14:36:55;;;;;;;16.65;4.03;;;;;;;;;;5062289;28;20032;-61
2023/10/09 14:39:26;;;;;;;10.93;4.65;;;;;;;;;;5060804;28;20047;-62
2023/10/09 14:41:54;;;;;;;14.30;4.43;;;;;;;;;;5066924;28;20029;-60
2023/10/09 14:44:20;;;;;;;15.15;4.97;;;;;;;;;;5057607;28;20044;-60
2023/10/09 14:46:46;;;;;;;9.45;4.20;;;;;;;;;;5059142;28;20021;-60
2023/10/09 14:49:14;;;;;;;12.65;4.53;;;;;;;;;;5054325;28;20036;-58
2023/10/09 14:51:40;;;;;;;16.02;5.13;;;;;;;;;;5058893;28;20027;-59
2023/10/09 14:54:07;;;;;;;10.15;4.65;;;;;;;;;;5054970;28;20087;-60
2023/10/09 14:56:36;;;;;;;15.57;4.53;;;;;;;;;;5062901;28;20023;-71
2023/10/09 14:59:02;;;;;;;16.52;5.43;;;;;;;;;;5065844;28;20036;-69
2023/10/09 15:01:31;;;;;;;10.27;4.72;;;;;;;;;;5060895;28;20458;-70
2023/10/09 15:03:59;;;;;;;12.48;4.63;;;;;;;;;;5065378;28;20397;-69
2023/10/09 15:06:27;;;;;;;11.68;4.70;;;;;;;;;;5065097;28;20028;-74
2023/10/09 15:08:55;;;;;;;11.98;4.85;;;;;;;;;;5062546;28;20028;-67
2023/10/09 15:11:25;;;;;;;16.17;5.43;;;;;;;;;;5059753;28;20391;-71
2023/10/09 15:13:52;;;;;;;15.98;5.30;;;;;;;;;;5062909;28;20389;-65
2023/10/09 15:16:21;;;;;;;13.25;4.75;;;;;;;;;;5059739;28;20029;-68
2023/10/09 15:18:51;;;;;;;11.50;4.45;;;;;;;;;;5061921;28;20036;-62
2023/10/09 15:21:17;;;;;;;13.13;4.20;;;;;;;;;;5055242;28;20031;-63
2023/10/09 15:23:44;;;;;;;17.52;5.07;;;;;;;;;;5059647;28;20036;-63
2023/10/09 15:26:10;;;;;;;11.38;4.95;;;;;;;;;;5060746;28;20044;-63
2023/10/09 15:28:36;;;;;;;12.82;4.95;;;;;;;;;;5087639;28;20047;-63
2023/10/09 15:31:03;;;;;;;17.70;4.68;;;;;;;;;;5090352;28;20063;-63
2023/10/09 15:33:31;;;;;;;17.13;4.65;;;;;;;;;;5089106;28;20493;-62
2023/10/09 15:35:57;;;;;;;16.33;5.53;;;;;;;;;;5082153;28;20032;-62
2023/10/09 15:38:25;;;;;;;20.77;5.88;;;;;;;;;;5064134;28;20099;-62
2023/10/09 15:40:51;;;;;;;28.58;5.88;;;;;;;;;;5083388;28;20073;-62
2023/10/09 15:43:17;;;;;;;34.00;5.85;;;;;;;;;;5081132;28;20025;-54
2023/10/09 15:45:49;;;;;;;39.55;7.55;;;;;;;;;;5078651;28;20032;-52
2023/10/09 15:48:16;;;;;;;32.38;6.57;;;;;;;;;;5079904;28;20020;-54
2023/10/09 15:50:49;;;;;;;24.90;5.85;;;;;;;;;;5104924;28;20565;-54
2023/10/09 15:53:19;;;;;;;21.27;5.97;;;;;;;;;;5091555;28;20500;-54
2023/10/09 15:55:45;;;;;;;20.48;4.93;;;;;;;;;;5091337;28;20067;-53
2023/10/09 15:58:12;;;;;;;30.67;5.85;;;;;;;;;;5077348;28;20073;-54
2023/10/09 16:00:39;;;;;;;29.30;7.10;;;;;;;;;;5092365;28;20349;-54
2023/10/09 16:03:09;;;;;;;23.85;5.75;;;;;;;;;;5091872;28;20079;-54
2023/10/09 16:05:35;;;;;;;22.33;5.53;;;;;;;;;;5092208;28;20036;-51
2023/10/09 16:08:03;;;;;;;20.65;5.43;;;;;;;;;;5081287;28;20047;-54
2023/10/09 16:10:31;;;;;;;15.82;5.35;;;;;;;;;;5088628;28;20434;-54
2023/10/09 16:13:00;;;;;;;16.45;5.28;;;;;;;;;;5074030;28;20020;-54
2023/10/09 16:15:27;;;;;;;20.90;5.47;;;;;;;;;;5091870;28;20032;-55
2023/10/09 16:18:03;;;;;;;14.02;4.75;;;;;;;;;;5092017;28;20018;-54
2023/10/09 16:20:31;;;;;;;19.23;5.93;;;;;;;;;;5092111;28;20111;-53
2023/10/09 16:22:58;;;;;;;16.70;5.13;;;;;;;;;;5091678;28;20464;-54
2023/10/09 16:25:26;;;;;;;21.55;6.10;;;;;;;;;;5091644;28;20032;-54
2023/10/09 16:27:52;;;;;;;22.08;7.82;;;;;;;;;;5091922;28;20492;-52
2023/10/09 16:30:20;;;;;;;11.48;4.68;;;;;;;;;;5091980;28;20020;-54
2023/10/09 16:32:46;;;;;;;15.60;6.15;;;;;;;;;;5091692;28;20024;-52
2023/10/09 16:35:12;;;;;;;19.38;5.70;;;;;;;;;;5081677;28;20008;-54
2023/10/09 16:37:38;;;;;;;15.02;5.55;;;;;;;;;;5088102;28;20039;-54
2023/10/09 16:40:13;;;;;;;19.63;6.75;;;;;;;;;;5091847;28;20023;-51
2023/10/09 16:42:40;;;;;;;13.88;5.32;;;;;;;;;;5091691;28;20386;-55
2023/10/09 16:45:08;;;;;;;11.10;4.65;;;;;;;;;;5082503;28;20040;-56
2023/10/09 16:47:38;;;;;;;13.20;4.80;;;;;;;;;;5093045;28;20024;-51
2023/10/09 16:50:09;;;;;;;14.20;5.18;;;;;;;;;;5095373;28;20016;-55
2023/10/09 16:52:37;;;;;;;14.80;5.93;;;;;;;;;;5095436;28;20020;-51
2023/10/09 16:55:08;;;;;;;13.68;5.90;;;;;;;;;;5095370;28;20016;-53
2023/10/09 16:57:34;;;;;;;15.82;5.78;;;;;;;;;;5095381;28;20063;-54
2023/10/09 17:00:00;;;;;;;19.90;6.05;;;;;;;;;;5095337;28;20020;-53
2023/10/09 17:02:27;;;;;;;14.30;5.32;;;;;;;;;;5095086;28;20173;-53
2023/10/09 17:04:54;;;;;;;16.92;6.18;;;;;;;;;;5094831;28;20036;-51
2023/10/09 17:07:24;;;;;;;16.10;5.95;;;;;;;;;;5094870;28;20020;-54
2023/10/09 17:09:50;;;;;;;15.13;5.60;;;;;;;;;;5094810;28;20031;-52
2023/10/09 17:12:17;;;;;;;17.63;5.78;;;;;;;;;;5094791;28;20016;-50
2023/10/09 17:14:43;;;;;;;16.80;5.90;;;;;;;;;;5091492;28;20452;-53
2023/10/09 17:17:09;;;;;;;14.98;6.10;;;;;;;;;;5089637;28;20470;-55
2023/10/09 17:19:37;;;;;;;15.23;5.50;;;;;;;;;;5082464;28;20025;-54
2023/10/09 17:22:10;;;;;;;19.48;6.40;;;;;;;;;;5091265;28;20093;-54
2023/10/09 17:24:38;;;;;;;17.75;6.13;;;;;;;;;;5093010;28;20504;-55